Time;durP1;ratioP1;P1;durP2;ratioP2;P2;SDS_P1;SDS_P2;PMS_P1;PMS_P2;Temp;Humidity;BMP_temperature;BMP_pressure;BME280_temperature;BME280_humidity;BME280_pressure;Samples;Min_cycle;Max_cycle;Signal;HPM_P1;HPM_P2
2022/08/21 00:02:00;;;;;;;6.20;4.40;;;;;;;29.34;45.40;100161.63;104608;1308;61403;-82
2022/08/21 00:04:25;;;;;;;5.60;4.00;;;;;;;29.34;45.45;100162.76;104598;1308;61377;-80
2022/08/21 00:06:51;;;;;;;5.20;4.20;;;;;;;29.34;45.53;100156.60;104510;1309;61307;-81
2022/08/21 00:09:18;;;;;;;5.20;4.00;;;;;;;29.33;45.40;100152.08;104566;1309;61290;-80
2022/08/21 00:11:43;;;;;;;4.80;4.10;;;;;;;29.33;45.51;100152.48;104601;1309;61249;-81
2022/08/21 00:14:09;;;;;;;5.60;4.50;;;;;;;29.32;45.62;100152.90;104558;1309;61310;-80
2022/08/21 00:16:35;;;;;;;5.70;4.40;;;;;;;29.33;45.39;100153.74;104488;1309;74151;-81
2022/08/21 00:19:01;;;;;;;5.30;4.50;;;;;;;29.33;45.54;100157.22;104523;1309;61381;-81
2022/08/21 00:21:26;;;;;;;5.80;4.20;;;;;;;29.33;45.66;100161.19;104602;1307;61267;-81
2022/08/21 00:23:52;;;;;;;5.50;4.50;;;;;;;29.33;45.47;100160.82;104588;1309;61275;-81
2022/08/21 00:26:18;;;;;;;6.30;4.10;;;;;;;29.33;45.38;100158.13;104622;1309;61336;-81
2022/08/21 00:28:45;;;;;;;6.70;4.20;;;;;;;29.33;45.45;100157.38;104653;1308;61339;-81
2022/08/21 00:31:12;;;;;;;5.40;4.10;;;;;;;29.32;45.40;100155.69;104628;1307;74661;-81
2022/08/21 00:33:38;;;;;;;6.30;4.70;;;;;;;29.32;45.49;100155.69;104496;1308;61307;-81
2022/08/21 00:36:03;;;;;;;5.50;4.60;;;;;;;29.32;45.55;100152.97;104587;1309;61412;-81
2022/08/21 00:38:29;;;;;;;5.50;4.20;;;;;;;29.33;45.59;100147.47;104561;1309;61290;-81
2022/08/21 00:40:57;;;;;;;5.90;4.50;;;;;;;29.32;45.67;100147.33;104547;1308;61803;-81
2022/08/21 00:43:27;;;;;;;5.20;4.20;;;;;;;29.32;45.82;100150.29;104594;1309;61355;-81
2022/08/21 00:45:53;;;;;;;6.50;4.20;;;;;;;29.32;45.68;100148.45;104598;1309;61422;-81
2022/08/21 00:48:19;;;;;;;5.60;4.20;;;;;;;29.31;45.77;100147.81;104511;1309;61236;-82
2022/08/21 00:51:06;;;;;;;5.30;4.20;;;;;;;29.31;45.68;100151.04;104500;1308;61317;-79
2022/08/21 00:53:32;;;;;;;5.20;4.10;;;;;;;29.32;45.69;100150.12;104617;1309;61557;-79
2022/08/21 00:55:58;;;;;;;5.20;4.30;;;;;;;29.32;45.81;100154.46;104600;1309;61276;-80
2022/08/21 00:58:24;;;;;;;5.50;4.30;;;;;;;29.31;45.83;100149.23;104537;1309;61339;-80
2022/08/21 01:00:50;;;;;;;5.50;4.80;;;;;;;29.31;45.62;100153.08;104579;1309;61260;-80
2022/08/21 01:03:17;;;;;;;5.30;4.40;;;;;;;29.31;45.95;100151.61;104465;1309;61329;-80
2022/08/21 01:05:43;;;;;;;5.50;4.00;;;;;;;29.31;45.71;100153.41;104614;1309;61307;-80
2022/08/21 01:08:09;;;;;;;5.90;4.50;;;;;;;29.31;45.81;100150.02;104514;1309;61291;-80
2022/08/21 01:10:36;;;;;;;5.00;4.20;;;;;;;29.31;45.63;100147.64;104557;1309;61401;-80
2022/08/21 01:13:02;;;;;;;4.80;4.20;;;;;;;29.31;45.52;100144.41;104591;1308;61307;-80
2022/08/21 01:15:33;;;;;;;6.20;4.80;;;;;;;29.31;45.80;100140.27;104532;1309;61285;-80
2022/08/21 01:17:59;;;;;;;5.70;4.30;;;;;;;29.31;45.55;100138.09;104602;1308;72906;-80
2022/08/21 01:20:24;;;;;;;6.30;4.30;;;;;;;29.30;45.75;100131.95;104519;1309;61304;-80
2022/08/21 01:22:50;;;;;;;5.30;4.10;;;;;;;29.30;45.83;100134.87;104583;1309;61311;-80
2022/08/21 01:25:16;;;;;;;5.30;4.20;;;;;;;29.30;45.96;100132.33;104573;1307;62119;-80
2022/08/21 01:27:43;;;;;;;6.20;4.30;;;;;;;29.30;45.77;100133.58;104497;1308;61284;-80
2022/08/21 01:30:28;;;;;;;6.40;4.50;;;;;;;29.30;45.64;100130.23;104598;1309;61663;-80
2022/08/21 01:32:54;;;;;;;6.40;4.60;;;;;;;29.29;45.72;100128.12;104429;1309;61297;-80
2022/08/21 01:35:20;;;;;;;5.80;4.40;;;;;;;29.30;45.74;100124.84;104487;1309;61265;-80
2022/08/21 01:37:46;;;;;;;6.20;4.40;;;;;;;29.29;45.97;100122.81;104580;1309;61271;-81
2022/08/21 01:40:13;;;;;;;5.30;4.50;;;;;;;29.30;45.57;100126.05;104488;1309;61242;-80
2022/08/21 01:42:39;;;;;;;5.90;4.60;;;;;;;29.29;45.78;100125.02;104632;1309;61239;-80
2022/08/21 01:45:06;;;;;;;5.60;4.50;;;;;;;29.30;45.99;100126.63;104520;1308;61277;-80
2022/08/21 01:47:32;;;;;;;5.90;4.20;;;;;;;29.29;45.96;100130.66;104535;1309;61147;-80
2022/08/21 01:49:58;;;;;;;6.40;4.70;;;;;;;29.29;45.83;100131.59;104555;1309;62170;-80
2022/08/21 01:52:24;;;;;;;5.20;4.10;;;;;;;29.29;45.75;100131.21;104504;1309;61289;-80
2022/08/21 01:54:49;;;;;;;5.40;4.50;;;;;;;29.29;45.75;100135.56;104590;1309;61375;-80
2022/08/21 01:57:15;;;;;;;6.20;4.70;;;;;;;29.29;45.84;100136.81;104659;1309;61218;-80
2022/08/21 01:59:41;;;;;;;6.30;4.80;;;;;;;29.29;45.99;100129.62;104638;1308;73808;-79
2022/08/21 02:02:06;;;;;;;6.50;4.60;;;;;;;29.29;45.99;100123.46;104576;1309;61317;-79
2022/08/21 02:04:32;;;;;;;5.30;4.50;;;;;;;29.28;45.86;100120.41;104621;1309;62247;-79
2022/08/21 02:06:59;;;;;;;7.10;4.90;;;;;;;29.28;45.93;100119.73;104619;1309;61355;-79
2022/08/21 02:09:25;;;;;;;6.20;4.70;;;;;;;29.28;45.98;100118.98;104613;1308;61274;-80
2022/08/21 02:11:51;;;;;;;6.00;4.60;;;;;;;29.28;45.94;100114.98;104511;1309;61276;-80
2022/08/21 02:14:17;;;;;;;7.00;4.80;;;;;;;29.28;45.82;100110.86;104522;1309;61257;-80
2022/08/21 02:16:43;;;;;;;6.00;4.20;;;;;;;29.27;45.86;100107.10;104529;1309;61293;-80
2022/08/21 02:19:10;;;;;;;7.30;4.80;;;;;;;29.28;45.78;100107.27;104492;1309;61194;-80
2022/08/21 02:21:35;;;;;;;6.00;4.80;;;;;;;29.28;45.83;100106.35;104596;1309;61232;-80
2022/08/21 02:24:01;;;;;;;5.50;4.50;;;;;;;29.27;45.93;100104.36;104541;1307;61236;-80
2022/08/21 02:26:28;;;;;;;7.20;4.50;;;;;;;29.28;46.14;100102.92;104488;1309;61183;-81
2022/08/21 02:28:54;;;;;;;6.80;4.60;;;;;;;29.27;46.04;100107.47;104518;1308;61237;-81
2022/08/21 02:31:19;;;;;;;6.00;4.70;;;;;;;29.27;46.23;100107.14;104530;1309;61238;-81
2022/08/21 02:33:45;;;;;;;6.00;4.30;;;;;;;29.27;46.01;100108.05;104529;1309;61380;-81
2022/08/21 02:36:11;;;;;;;5.80;4.50;;;;;;;29.27;46.15;100102.81;104639;1308;61328;-81
2022/08/21 02:38:40;;;;;;;5.90;4.60;;;;;;;29.27;46.00;100102.27;104540;1309;61613;-81
2022/08/21 02:41:43;;;;;;;6.60;4.80;;;;;;;29.26;45.96;100099.96;104534;1309;61304;-81
2022/08/21 02:44:09;;;;;;;6.10;4.90;;;;;;;29.25;46.06;100094.63;104562;1308;73631;-80
2022/08/21 02:46:35;;;;;;;7.50;4.30;;;;;;;29.25;45.92;100097.89;104529;1309;61271;-81
2022/08/21 02:49:00;;;;;;;6.60;4.80;;;;;;;29.26;45.98;100098.94;104592;1309;61388;-81
2022/08/21 02:51:26;;;;;;;7.40;4.50;;;;;;;29.26;45.95;100098.70;104586;1309;61265;-81
2022/08/21 02:53:51;;;;;;;6.10;4.50;;;;;;;29.26;46.15;100098.51;104624;1308;61387;-81
2022/08/21 02:56:19;;;;;;;6.50;4.70;;;;;;;29.26;46.16;100098.33;104475;1308;72722;-81
2022/08/21 02:58:47;;;;;;;6.30;4.40;;;;;;;29.25;46.12;100096.06;104492;1309;75041;-79
2022/08/21 03:01:12;;;;;;;7.50;4.50;;;;;;;29.25;46.03;100096.26;104493;1309;61263;-79
2022/08/21 03:03:40;;;;;;;7.20;4.60;;;;;;;29.25;45.98;100091.88;104583;1308;61466;-81
2022/08/21 03:06:07;;;;;;;5.70;4.40;;;;;;;29.25;46.12;100090.61;103578;1309;1412550;-81
2022/08/21 03:08:33;;;;;;;5.00;4.00;;;;;;;29.25;45.99;100091.97;104602;1308;61246;-81
2022/08/21 03:11:00;;;;;;;6.00;4.30;;;;;;;29.25;46.17;100095.38;104575;1309;61303;-81
2022/08/21 03:13:27;;;;;;;6.30;4.80;;;;;;;29.25;46.26;100098.80;104584;1309;61301;-81
2022/08/21 03:15:53;;;;;;;6.20;4.60;;;;;;;29.25;46.14;100104.45;104578;1309;72551;-81
2022/08/21 03:18:19;;;;;;;6.00;4.70;;;;;;;29.24;46.19;100099.79;104594;1309;61444;-81
2022/08/21 03:20:45;;;;;;;5.80;4.60;;;;;;;29.24;46.37;100096.52;104607;1309;61141;-81
2022/08/21 03:23:11;;;;;;;5.70;4.60;;;;;;;29.25;46.32;100096.66;104615;1309;61332;-81
2022/08/21 03:25:37;;;;;;;5.50;4.40;;;;;;;29.24;46.16;100102.52;104466;1309;61179;-81
2022/08/21 03:28:05;;;;;;;5.50;4.60;;;;;;;29.24;46.32;100108.14;104527;1309;61362;-81
2022/08/21 03:30:31;;;;;;;6.00;4.50;;;;;;;29.24;46.32;100109.41;104551;1309;61259;-81
2022/08/21 03:32:59;;;;;;;6.70;4.50;;;;;;;29.24;46.27;100109.02;104607;1309;61266;-81
2022/08/21 03:35:25;;;;;;;;;;;;;;;29.24;46.21;100105.42;104586;1309;74040;-81
2022/08/21 03:37:51;;;;;;;6.30;4.40;;;;;;;29.22;46.34;100104.80;104604;1309;61739;-81
2022/08/21 03:40:18;;;;;;;6.20;4.80;;;;;;;29.22;46.17;100106.21;104484;1309;61317;-82
2022/08/21 03:42:46;;;;;;;6.20;4.50;;;;;;;29.23;46.47;100103.27;104521;1309;61151;-82
2022/08/21 03:45:13;;;;;;;5.40;4.50;;;;;;;29.23;46.35;100104.27;104538;1309;73746;-80
2022/08/21 03:47:40;;;;;;;5.60;4.70;;;;;;;29.23;46.21;100102.10;104504;1309;74753;-82
2022/08/21 03:50:05;;;;;;;6.20;4.80;;;;;;;29.23;46.34;100098.88;104553;1309;61413;-82
2022/08/21 03:52:31;;;;;;;5.80;4.60;;;;;;;29.23;46.31;100100.13;104431;1310;61278;-82
2022/08/21 03:54:57;;;;;;;6.80;4.70;;;;;;;29.23;46.45;100101.52;104365;1312;61386;-82
2022/08/21 03:57:23;;;;;;;5.60;4.40;;;;;;;29.23;46.42;100098.67;104395;1311;61399;-82
2022/08/21 03:59:49;;;;;;;6.30;4.80;;;;;;;29.23;46.38;100104.45;104495;1312;61323;-81
2022/08/21 04:02:16;;;;;;;5.10;4.50;;;;;;;29.23;46.46;100101.73;104409;1310;61233;-81
2022/08/21 04:04:42;;;;;;;6.20;4.40;;;;;;;29.24;46.20;100103.12;104402;1310;61301;-81
2022/08/21 04:07:07;;;;;;;7.10;4.90;;;;;;;29.23;46.40;100097.89;104371;1312;61310;-81
2022/08/21 04:09:33;;;;;;;5.70;4.40;;;;;;;29.23;46.60;100099.55;104401;1313;61309;-81
2022/08/21 04:11:59;;;;;;;6.60;4.80;;;;;;;29.24;46.26;100100.05;104451;1312;61399;-81
2022/08/21 04:14:25;;;;;;;6.00;4.20;;;;;;;29.24;46.39;100108.73;104438;1312;61422;-80
2022/08/21 04:16:50;;;;;;;6.20;4.50;;;;;;;29.24;46.26;100111.58;104378;1312;61447;-80
2022/08/21 04:19:16;;;;;;;5.50;4.40;;;;;;;29.24;46.38;100108.30;104367;1312;61400;-80
2022/08/21 04:21:42;;;;;;;7.50;4.70;;;;;;;29.24;46.43;100107.78;104375;1310;61230;-81
2022/08/21 04:24:09;;;;;;;5.90;4.60;;;;;;;29.25;46.35;100107.19;104452;1312;61272;-79
2022/08/21 04:26:36;;;;;;;6.70;5.00;;;;;;;29.25;46.35;100107.91;104335;1312;61285;-82
2022/08/21 04:29:02;;;;;;;7.10;5.00;;;;;;;29.24;46.49;100107.77;104388;1312;61296;-80
2022/08/21 04:31:31;;;;;;;6.80;4.90;;;;;;;29.25;46.34;100105.70;104459;1309;61276;-80
2022/08/21 04:33:57;;;;;;;6.50;4.80;;;;;;;29.25;46.58;100107.75;104574;1309;61136;-80
2022/08/21 04:36:22;;;;;;;5.70;4.40;;;;;;;29.25;46.61;100110.60;104612;1308;61230;-80
2022/08/21 04:38:48;;;;;;;5.60;4.80;;;;;;;29.24;46.32;100103.23;104585;1309;61262;-80
2022/08/21 04:41:14;;;;;;;5.70;4.80;;;;;;;29.25;46.54;100100.64;104575;1309;61209;-80
2022/08/21 04:43:40;;;;;;;5.20;4.40;;;;;;;29.25;46.63;100105.12;104613;1308;61377;-80
2022/08/21 04:46:06;;;;;;;5.90;4.50;;;;;;;29.25;46.36;100106.38;104625;1309;61259;-80
2022/08/21 04:48:32;;;;;;;7.80;4.60;;;;;;;29.25;46.48;100108.59;104635;1308;61323;-80
2022/08/21 04:51:07;;;;;;;6.70;4.70;;;;;;;29.25;46.72;100112.44;104648;1309;72657;-80
2022/08/21 04:53:55;;;;;;;5.60;4.70;;;;;;;29.25;46.48;100115.80;104588;1309;75696;-80
2022/08/21 04:56:23;;;;;;;6.10;4.70;;;;;;;29.25;46.63;100113.08;104486;1309;61231;-80
2022/08/21 04:58:49;;;;;;;6.90;4.80;;;;;;;29.25;46.63;100115.63;104544;1309;62165;-80
2022/08/21 05:01:18;;;;;;;6.40;4.70;;;;;;;29.26;46.55;100121.02;104575;1309;61151;-80
2022/08/21 05:03:44;;;;;;;7.40;4.60;;;;;;;29.26;46.63;100122.11;104597;1309;74710;-80
2022/08/21 05:06:10;;;;;;;6.30;4.80;;;;;;;29.26;46.60;100126.44;104513;1309;61398;-81
2022/08/21 05:08:36;;;;;;;6.20;4.70;;;;;;;29.27;46.69;100130.16;104588;1308;61150;-81
2022/08/21 05:11:02;;;;;;;6.50;4.60;;;;;;;29.27;46.67;100129.05;104599;1309;61299;-81
2022/08/21 05:13:28;;;;;;;5.70;4.70;;;;;;;29.28;46.71;100130.61;104510;1309;62426;-81
2022/08/21 05:15:54;;;;;;;6.00;4.90;;;;;;;29.28;46.47;100126.77;104626;1309;61342;-81
2022/08/21 05:18:19;;;;;;;8.60;4.90;;;;;;;29.28;46.69;100128.05;104642;1309;61349;-81
2022/08/21 05:20:45;;;;;;;5.90;4.50;;;;;;;29.28;46.74;100128.22;104643;1309;61320;-78
2022/08/21 05:23:12;;;;;;;7.10;4.90;;;;;;;29.29;46.80;100132.30;104625;1308;61249;-79
2022/08/21 05:25:38;;;;;;;7.00;5.20;;;;;;;29.30;46.93;100134.57;104594;1309;61313;-81
2022/08/21 05:28:03;;;;;;;6.70;4.70;;;;;;;29.30;46.83;100135.49;104615;1309;60116;-80
2022/08/21 05:30:29;;;;;;;5.60;4.80;;;;;;;29.30;46.94;100139.63;104489;1309;61366;-81
2022/08/21 05:32:58;;;;;;;8.80;4.90;;;;;;;29.31;46.93;100146.55;104585;1309;61354;-80
2022/08/21 05:35:25;;;;;;;8.30;4.90;;;;;;;29.31;46.89;100148.70;104567;1309;75621;-80
2022/08/21 05:37:50;;;;;;;5.60;4.50;;;;;;;29.32;47.04;100145.94;104472;1309;61358;-80
2022/08/21 05:40:16;;;;;;;7.60;5.00;;;;;;;29.32;47.09;100151.30;104364;1312;61321;-80
2022/08/21 05:42:41;;;;;;;6.70;4.60;;;;;;;29.33;47.07;100152.69;104394;1311;62005;-81
2022/08/21 05:45:07;;;;;;;6.90;5.30;;;;;;;29.33;47.18;100148.48;104439;1312;61282;-81
2022/08/21 05:47:33;;;;;;;5.80;5.00;;;;;;;29.34;47.18;100144.39;104389;1312;61500;-80
2022/08/21 05:49:58;;;;;;;5.50;4.60;;;;;;;29.34;47.28;100142.36;104286;1312;61297;-80
2022/08/21 05:52:24;;;;;;;6.80;5.10;;;;;;;29.35;47.12;100140.81;104420;1309;61313;-79
2022/08/21 05:54:50;;;;;;;6.40;4.90;;;;;;;29.35;47.17;100138.07;104394;1309;61342;-81
2022/08/21 05:57:15;;;;;;;7.90;5.10;;;;;;;29.36;47.43;100134.73;104399;1312;61375;-81
2022/08/21 05:59:41;;;;;;;6.30;5.20;;;;;;;29.37;47.16;100140.61;104445;1310;61291;-81
2022/08/21 06:02:08;;;;;;;6.50;4.90;;;;;;;29.37;47.28;100134.76;104422;1312;61276;-81
2022/08/21 06:04:37;;;;;;;7.40;4.90;;;;;;;29.38;47.16;100135.60;104473;1312;61362;-81
2022/08/21 06:07:03;;;;;;;6.30;4.80;;;;;;;29.38;47.24;100134.14;104429;1312;72937;-81
2022/08/21 06:09:29;;;;;;;6.60;4.70;;;;;;;29.38;47.30;100133.52;104534;1308;61325;-81
2022/08/21 06:11:55;;;;;;;5.90;4.90;;;;;;;29.39;47.48;100137.95;104611;1309;61355;-81
2022/08/21 06:14:21;;;;;;;6.80;5.20;;;;;;;29.39;47.43;100135.77;104619;1307;61240;-81
2022/08/21 06:16:46;;;;;;;7.70;5.10;;;;;;;29.40;47.14;100136.44;104615;1308;61425;-81
2022/08/21 06:19:12;;;;;;;7.00;5.50;;;;;;;29.41;47.38;100138.89;104628;1308;61307;-81
2022/08/21 06:21:38;;;;;;;7.90;5.10;;;;;;;29.41;47.27;100134.08;104592;1309;75618;-79
2022/08/21 06:24:04;;;;;;;5.90;5.00;;;;;;;29.42;47.38;100136.86;104525;1309;61262;-79
2022/08/21 06:26:30;;;;;;;6.90;5.00;;;;;;;29.43;47.27;100134.82;104488;1309;61397;-81
2022/08/21 06:28:56;;;;;;;5.60;4.80;;;;;;;29.43;47.20;100133.86;104575;1309;61157;-81
2022/08/21 06:31:24;;;;;;;6.30;5.00;;;;;;;29.44;47.27;100133.95;104585;1309;61281;-81
2022/08/21 06:33:50;;;;;;;6.60;5.00;;;;;;;29.45;47.35;100132.09;104606;1307;61127;-81
2022/08/21 06:36:16;;;;;;;6.60;5.00;;;;;;;29.45;47.12;100134.23;104604;1309;61320;-82
2022/08/21 06:38:41;;;;;;;5.60;4.70;;;;;;;29.46;47.34;100133.41;104484;1309;61242;-82
2022/08/21 06:41:07;;;;;;;6.20;4.90;;;;;;;29.47;47.07;100136.59;104480;1309;61230;-82
2022/08/21 06:43:33;;;;;;;7.10;5.20;;;;;;;29.47;47.07;100138.55;104629;1309;61387;-82
2022/08/21 06:45:58;;;;;;;6.40;4.90;;;;;;;29.48;47.24;100141.20;104612;1309;61301;-82
2022/08/21 06:48:24;;;;;;;5.80;4.70;;;;;;;29.47;47.28;100140.13;104493;1308;61394;-82
2022/08/21 06:50:49;;;;;;;6.50;4.90;;;;;;;29.48;47.30;100141.64;104502;1309;61277;-81
2022/08/21 06:53:17;;;;;;;7.10;4.90;;;;;;;29.49;47.17;100143.77;104573;1309;61407;-81
2022/08/21 06:55:44;;;;;;;7.10;5.10;;;;;;;29.49;47.07;100141.92;104590;1308;61157;-82
2022/08/21 06:58:11;;;;;;;5.90;4.60;;;;;;;29.49;47.17;100139.70;104481;1309;61276;-82
2022/08/21 07:00:39;;;;;;;5.90;4.90;;;;;;;29.50;47.26;100142.39;104592;1308;61377;-82
2022/08/21 07:03:04;;;;;;;7.00;5.00;;;;;;;29.50;47.03;100136.52;104465;1309;72317;-82
2022/08/21 07:05:30;;;;;;;7.10;5.20;;;;;;;29.51;46.98;100132.86;104519;1309;61335;-80
2022/08/21 07:07:56;;;;;;;5.80;5.00;;;;;;;29.51;47.10;100132.27;104594;1308;61266;-79
2022/08/21 07:10:26;;;;;;;7.10;4.80;;;;;;;29.51;47.09;100129.48;104573;1309;61290;-80
2022/08/21 07:12:53;;;;;;;5.90;4.60;;;;;;;29.51;46.99;100127.48;104583;1309;74668;-81
2022/08/21 07:15:20;;;;;;;6.90;5.00;;;;;;;29.53;47.14;100134.23;104611;1308;61285;-80
2022/08/21 07:17:45;;;;;;;5.70;4.80;;;;;;;29.52;47.26;100129.20;104417;1309;61237;-80
2022/08/21 07:20:11;;;;;;;6.50;4.80;;;;;;;29.53;47.00;100130.96;104492;1309;62472;-80
2022/08/21 07:22:36;;;;;;;5.80;4.90;;;;;;;29.53;47.15;100127.80;104509;1309;61252;-80
2022/08/21 07:25:04;;;;;;;6.70;4.80;;;;;;;29.54;47.02;100130.62;104524;1309;61386;-80
2022/08/21 07:27:31;;;;;;;5.40;4.70;;;;;;;29.54;47.08;100130.08;104578;1308;61300;-81
2022/08/21 07:29:57;;;;;;;6.70;5.00;;;;;;;29.55;46.74;100126.58;104500;1309;61276;-80
2022/08/21 07:32:23;;;;;;;6.20;5.10;;;;;;;29.55;47.02;100130.67;104500;1309;61376;-80
2022/08/21 07:34:49;;;;;;;5.70;4.60;;;;;;;29.55;47.13;100122.90;104571;1309;61304;-80
2022/08/21 07:37:14;;;;;;;5.70;4.70;;;;;;;29.56;46.91;100122.08;104617;1308;61312;-81
2022/08/21 07:39:41;;;;;;;6.90;5.20;;;;;;;29.55;47.09;100117.77;104633;1308;62557;-81
2022/08/21 07:42:06;;;;;;;7.80;4.90;;;;;;;29.56;46.92;100115.17;104581;1308;73722;-81
2022/08/21 07:44:34;;;;;;;6.00;4.70;;;;;;;29.56;46.78;100113.55;104570;1309;61294;-81
2022/08/21 07:47:00;;;;;;;6.00;4.80;;;;;;;29.56;46.93;100111.13;104601;1308;61283;-80
2022/08/21 07:49:27;;;;;;;5.70;4.80;;;;;;;29.56;47.07;100114.77;104518;1309;61155;-80
2022/08/21 07:51:53;;;;;;;6.80;5.20;;;;;;;29.57;46.84;100112.64;104454;1309;73744;-81
2022/08/21 07:54:19;;;;;;;6.90;5.20;;;;;;;29.57;46.84;100109.59;104490;1309;62178;-81
2022/08/21 07:56:45;;;;;;;6.20;4.90;;;;;;;29.57;46.93;100108.84;104613;1309;61726;-80
2022/08/21 07:59:11;;;;;;;6.20;4.90;;;;;;;29.57;46.80;100109.02;104605;1309;61134;-80
2022/08/21 08:01:38;;;;;;;7.60;5.20;;;;;;;29.57;46.90;100100.64;104533;1309;61243;-80
2022/08/21 08:04:03;;;;;;;7.10;4.70;;;;;;;29.58;46.91;100102.24;104612;1309;61314;-81
2022/08/21 08:06:30;;;;;;;6.00;4.90;;;;;;;29.57;46.91;100102.98;104599;1309;61259;-80
2022/08/21 08:08:56;;;;;;;6.30;5.00;;;;;;;29.57;46.80;100104.61;104517;1309;61367;-80
2022/08/21 08:11:22;;;;;;;6.20;4.70;;;;;;;29.58;46.84;100098.44;104616;1308;61374;-80
2022/08/21 08:13:50;;;;;;;5.80;5.10;;;;;;;29.58;46.96;100090.98;104628;1309;72703;-80
2022/08/21 08:16:16;;;;;;;6.70;5.00;;;;;;;29.58;46.83;100090.02;104581;1308;75842;-81
2022/08/21 08:18:41;;;;;;;5.90;4.80;;;;;;;29.58;46.75;100093.28;104612;1309;61275;-80
2022/08/21 08:21:08;;;;;;;6.90;5.10;;;;;;;29.58;46.70;100087.13;104571;1308;61154;-80
2022/08/21 08:23:33;;;;;;;6.20;5.10;;;;;;;29.58;46.73;100087.67;104406;1309;61195;-80
2022/08/21 08:25:59;;;;;;;5.40;4.40;;;;;;;29.58;46.78;100087.10;104501;1309;59425;-79
2022/08/21 08:28:25;;;;;;;6.70;4.90;;;;;;;29.58;46.66;100083.67;104532;1309;61256;-81
2022/08/21 08:30:51;;;;;;;6.10;4.80;;;;;;;29.59;46.84;100082.17;104626;1308;61162;-81
2022/08/21 08:33:16;;;;;;;6.10;5.20;;;;;;;29.59;46.66;100080.36;104583;1308;61295;-81
2022/08/21 08:35:45;;;;;;;7.30;4.90;;;;;;;29.58;46.66;100079.33;104575;1309;61459;-80
2022/08/21 08:38:10;;;;;;;6.30;4.90;;;;;;;29.59;46.57;100083.42;104598;1309;75853;-79
2022/08/21 08:41:02;;;;;;;5.80;5.10;;;;;;;29.59;46.65;100084.92;104535;1309;61250;-81
2022/08/21 08:43:29;;;;;;;5.70;4.80;;;;;;;29.58;46.63;100081.12;104622;1308;61320;-81
2022/08/21 08:45:56;;;;;;;6.60;4.80;;;;;;;29.58;46.56;100079.69;104534;1307;72822;-80
2022/08/21 08:48:33;;;;;;;5.90;4.80;;;;;;;29.58;46.59;100073.54;104485;1309;75594;-80
2022/08/21 08:51:00;;;;;;;5.80;4.80;;;;;;;29.59;46.59;100064.39;104532;1309;61435;-79
2022/08/21 08:53:31;;;;;;;5.60;4.60;;;;;;;29.58;46.55;100064.13;104497;1309;61265;-80
2022/08/21 08:55:57;;;;;;;6.00;4.80;;;;;;;29.58;46.60;100065.72;104607;1309;72681;-80
2022/08/21 08:58:32;;;;;;;6.50;5.40;;;;;;;29.58;46.51;100059.02;104607;1309;61744;-80
2022/08/21 09:00:58;;;;;;;6.00;4.90;;;;;;;29.58;46.44;100057.55;104612;1309;61475;-80
2022/08/21 09:03:25;;;;;;;5.60;4.60;;;;;;;29.58;46.37;100053.39;104624;1309;61247;-80
2022/08/21 09:06:29;;;;;;;6.60;4.70;;;;;;;29.59;46.63;100053.35;104510;1309;60056;-81
2022/08/21 09:09:02;;;;;;;6.30;4.70;;;;;;;29.59;46.46;100051.88;104581;1309;75847;-80
2022/08/21 09:11:59;;;;;;;7.30;5.10;;;;;;;29.59;46.53;100047.91;104617;1309;61180;-80
2022/08/21 09:14:52;;;;;;;6.50;4.60;;;;;;;29.59;46.52;100038.16;104533;1309;61228;-81
2022/08/21 09:17:35;;;;;;;6.50;4.80;;;;;;;29.59;46.57;100036.86;104604;1309;72925;-80
2022/08/21 09:20:55;;;;;;;5.40;4.70;;;;;;;29.59;46.54;100033.05;104595;1309;75791;-80
2022/08/21 09:23:47;;;;;;;5.80;4.60;;;;;;;29.58;46.62;100034.93;104269;1314;61163;-80
2022/08/21 09:26:18;;;;;;;5.80;4.90;;;;;;;29.58;46.47;100032.00;104619;1309;61433;-80
2022/08/21 09:28:44;;;;;;;5.70;4.70;;;;;;;29.58;46.54;100024.94;104385;1309;73829;-81
2022/08/21 09:31:28;;;;;;;5.60;4.60;;;;;;;29.59;46.51;100023.77;104555;1309;74870;-79
2022/08/21 09:34:02;;;;;;;6.00;4.80;;;;;;;29.59;46.43;100029.01;104602;1309;61252;-80
2022/08/21 09:36:33;;;;;;;5.80;4.50;;;;;;;29.59;46.56;100019.80;104581;1308;61157;-80
2022/08/21 09:38:59;;;;;;;5.70;4.50;;;;;;;29.59;46.39;100019.21;104618;1309;72889;-80
2022/08/21 09:41:31;;;;;;;5.80;4.50;;;;;;;29.59;46.41;100021.94;104594;1309;61316;-80
2022/08/21 09:43:56;;;;;;;6.00;4.70;;;;;;;29.59;46.48;100020.72;104399;1309;61149;-80
2022/08/21 09:46:26;;;;;;;5.50;4.80;;;;;;;29.59;46.41;100019.30;104513;1309;61301;-81
2022/08/21 09:48:58;;;;;;;6.70;5.40;;;;;;;29.58;46.47;100017.11;104594;1307;72918;-80
2022/08/21 09:51:37;;;;;;;5.60;4.60;;;;;;;29.58;46.45;100013.89;104518;1309;75634;-80
2022/08/21 09:54:08;;;;;;;;;;;;;;;29.58;46.51;100010.28;104564;1309;61279;-80
2022/08/21 09:59:31;;;;;;;5.40;4.60;;;;;;;29.57;46.40;100004.28;104604;1309;72560;-81
2022/08/21 10:02:01;;;;;;;6.40;5.10;;;;;;;29.57;46.46;100005.91;104527;1308;74925;-81
2022/08/21 10:04:30;;;;;;;7.30;4.50;;;;;;;29.57;46.26;100001.77;104605;1307;61427;-81
2022/08/21 10:07:09;;;;;;;6.60;4.80;;;;;;;29.56;46.26;100002.52;104626;1309;62099;-82
2022/08/21 10:09:34;;;;;;;5.50;4.70;;;;;;;29.56;46.45;99999.47;104528;1309;73311;-82
2022/08/21 10:12:06;;;;;;;6.00;5.10;;;;;;;29.56;46.36;100002.56;104529;1308;61268;-80
2022/08/21 10:14:40;;;;;;;6.40;4.50;;;;;;;29.56;46.39;100000.35;104600;1309;61229;-80
2022/08/21 10:17:12;;;;;;;6.30;4.80;;;;;;;29.56;46.49;99995.83;104528;1309;61252;-80
2022/08/21 10:20:11;;;;;;;5.30;4.40;;;;;;;29.56;46.27;99993.38;104590;1308;72817;-80
2022/08/21 10:22:37;;;;;;;5.00;4.40;;;;;;;29.55;46.20;99995.02;104656;1309;75674;-80
2022/08/21 10:25:07;;;;;;;6.00;4.30;;;;;;;29.56;46.15;99996.45;104658;1307;61412;-80
2022/08/21 10:27:40;;;;;;;8.10;4.80;;;;;;;29.55;46.34;99996.11;104616;1309;61390;-81
2022/08/21 10:30:12;;;;;;;5.80;4.60;;;;;;;29.55;46.39;99997.40;104553;1308;75059;-80
2022/08/21 10:33:01;;;;;;;5.50;4.30;;;;;;;29.56;46.36;99997.71;104630;1308;74772;-81
2022/08/21 10:35:36;;;;;;;5.60;4.70;;;;;;;29.55;46.15;99992.85;104538;1308;61288;-81
2022/08/21 10:38:38;;;;;;;5.50;4.30;;;;;;;29.56;46.25;99992.09;104618;1308;61489;-81
2022/08/21 10:41:20;;;;;;;6.40;4.70;;;;;;;29.56;46.23;99985.56;104506;1309;71540;-81
2022/08/21 10:44:22;;;;;;;5.20;4.50;;;;;;;29.56;46.17;99979.17;104601;1309;75236;-81
2022/08/21 10:47:22;;;;;;;7.40;4.50;;;;;;;29.56;46.23;99975.73;104205;1316;61402;-81
2022/08/21 10:49:58;;;;;;;5.50;4.30;;;;;;;29.56;46.11;99972.47;103051;1323;62065;-81
2022/08/21 10:52:45;;;;;;;5.00;4.40;;;;;;;29.57;46.10;99968.94;103154;1323;73941;-81
2022/08/21 10:55:17;;;;;;;6.50;4.40;;;;;;;29.57;46.00;99963.84;103142;1323;75117;-80
2022/08/21 10:57:52;;;;;;;6.40;4.70;;;;;;;29.57;46.05;99961.13;103115;1322;61177;-80
2022/08/21 11:00:23;;;;;;;5.60;4.60;;;;;;;29.58;46.05;99961.58;103130;1322;61382;-81
2022/08/21 11:03:16;;;;;;;6.30;4.70;;;;;;;29.57;45.97;99952.55;103018;1323;73717;-81
2022/08/21 11:05:54;;;;;;;5.70;4.10;;;;;;;29.57;46.08;99954.50;103117;1322;75895;-81
2022/08/21 11:08:31;;;;;;;6.50;5.00;;;;;;;29.58;45.98;99945.77;103077;1323;61372;-81
2022/08/21 11:11:18;;;;;;;5.60;4.40;;;;;;;29.57;45.97;99946.02;103086;1323;61312;-79
2022/08/21 11:13:53;;;;;;;6.20;4.70;;;;;;;29.57;46.02;99948.19;103032;1323;72714;-79
2022/08/21 11:16:25;;;;;;;5.40;4.40;;;;;;;29.58;46.11;99942.34;103026;1323;75515;-81
2022/08/21 11:18:57;;;;;;;5.30;4.50;;;;;;;29.58;46.10;99940.66;103153;1322;61386;-81
2022/08/21 11:21:32;;;;;;;5.20;4.50;;;;;;;29.58;45.97;99934.68;103169;1322;61334;-80
2022/08/21 11:24:36;;;;;;;5.60;4.50;;;;;;;29.58;45.95;99928.91;103543;1317;74078;-80
2022/08/21 11:27:27;;;;;;;6.60;4.90;;;;;;;29.58;45.97;99927.33;103965;1309;74473;-80
2022/08/21 11:29:56;;;;;;;5.70;4.60;;;;;;;29.57;45.92;99922.09;104306;1315;61385;-80
2022/08/21 11:33:09;;;;;;;6.20;4.50;;;;;;;29.58;45.81;99917.36;104114;1315;61206;-80